createdAt,value
2019-04-07T00:00:37.095Z,32.87
2019-04-07T00:03:08.027Z,34.80
2019-04-07T00:05:38.916Z,34.23
2019-04-07T00:08:10.137Z,32.37
2019-04-07T00:10:43.506Z,35.33
2019-04-07T00:13:14.011Z,32.57
2019-04-07T00:15:45.195Z,36.37
2019-04-07T00:18:15.729Z,36.87
2019-04-07T00:20:46.119Z,32.53
2019-04-07T00:23:17.596Z,38.40
2019-04-07T00:25:48.015Z,28.80
2019-04-07T00:28:19.676Z,29.70
2019-04-07T00:30:50.294Z,32.80
2019-04-07T00:33:20.769Z,35.43
2019-04-07T00:35:58.112Z,38.90
2019-04-07T00:38:28.629Z,39.50
2019-04-07T00:40:59.307Z,43.10
2019-04-07T00:43:30.881Z,32.83
2019-04-07T00:46:01.413Z,38.63
2019-04-07T00:48:32.122Z,34.80
2019-04-07T00:51:02.707Z,32.40
2019-04-07T00:53:33.289Z,35.80
2019-04-07T00:56:03.950Z,36.70
2019-04-07T00:58:34.600Z,32.77
2019-04-07T01:01:07.540Z,34.60
2019-04-07T01:03:38.119Z,31.87
2019-04-07T01:06:08.725Z,29.97
2019-04-07T01:08:39.255Z,31.00
2019-04-07T01:11:09.736Z,29.77
2019-04-07T01:13:40.214Z,37.37
2019-04-07T01:16:10.832Z,30.97
2019-04-07T01:18:41.216Z,35.63
2019-04-07T01:21:11.679Z,32.83
2019-04-07T01:23:42.458Z,33.33
2019-04-07T01:26:13.830Z,37.23
2019-04-07T01:28:44.321Z,35.93
2019-04-07T01:31:14.852Z,34.10
2019-04-07T01:33:47.772Z,32.17
2019-04-07T01:36:18.334Z,37.80
2019-04-07T01:38:48.849Z,35.60
2019-04-07T01:41:25.478Z,39.57
2019-04-07T01:44:03.785Z,39.80
2019-04-07T01:46:56.050Z,36.13
2019-04-07T01:49:49.339Z,42.17
2019-04-07T01:52:24.771Z,28.50
2019-04-07T01:55:20.354Z,34.83
2019-04-07T01:58:22.627Z,32.57
2019-04-07T02:01:10.838Z,35.57
2019-04-07T02:04:03.868Z,33.00
2019-04-07T02:06:42.090Z,36.60
2019-04-07T02:09:34.221Z,38.53
2019-04-07T02:12:18.970Z,33.63
2019-04-07T02:14:58.413Z,33.27
2019-04-07T02:18:00.140Z,28.63
2019-04-07T02:21:12.097Z,30.20
2019-04-07T02:24:08.045Z,34.80
2019-04-07T02:27:19.411Z,39.73
2019-04-07T02:29:57.847Z,33.57
2019-04-07T02:32:44.088Z,32.13
2019-04-07T02:35:32.205Z,38.83
2019-04-07T02:38:21.002Z,43.20
2019-04-07T02:41:00.591Z,40.47
2019-04-07T02:43:44.561Z,43.63
2019-04-07T02:46:38.056Z,40.10
2019-04-07T02:49:21.258Z,38.03
2019-04-07T02:52:11.797Z,37.23
2019-04-07T02:55:04.511Z,30.53
2019-04-07T02:57:47.570Z,27.93
2019-04-07T03:00:55.253Z,35.63
2019-04-07T03:03:39.487Z,29.63
2019-04-07T03:06:39.442Z,33.60
2019-04-07T03:09:24.612Z,36.40
2019-04-07T03:12:14.054Z,32.80
2019-04-07T03:14:57.228Z,34.30
2019-04-07T03:17:40.010Z,34.27
2019-04-07T03:20:18.856Z,32.87
2019-04-07T03:23:09.404Z,37.67
2019-04-07T03:26:11.808Z,35.33
2019-04-07T03:29:01.369Z,35.37
2019-04-07T03:31:39.444Z,33.60
2019-04-07T03:34:31.326Z,31.80
2019-04-07T03:37:36.312Z,33.23
2019-04-07T03:40:15.490Z,30.20
2019-04-07T03:43:03.615Z,34.17
2019-04-07T03:45:49.917Z,33.10
2019-04-07T03:48:51.798Z,33.40
2019-04-07T03:51:30.527Z,27.30
2019-04-07T03:54:18.865Z,32.80
2019-04-07T03:57:11.328Z,36.53
2019-04-07T04:00:18.982Z,30.13
2019-04-07T04:03:04.866Z,35.60
2019-04-07T04:05:55.022Z,34.60
2019-04-07T04:08:45.644Z,34.33
2019-04-07T04:11:22.110Z,36.43
2019-04-07T04:14:09.380Z,40.47
2019-04-07T04:16:44.404Z,41.13
2019-04-07T04:19:15.146Z,36.60
2019-04-07T04:21:45.614Z,35.40
2019-04-07T04:24:16.890Z,39.10
2019-04-07T04:26:47.630Z,32.00
2019-04-07T04:29:20.147Z,34.37
2019-04-07T04:31:50.716Z,31.40
2019-04-07T04:34:21.051Z,32.13
2019-04-07T04:36:51.926Z,37.13
2019-04-07T04:39:23.517Z,32.93
2019-04-07T04:41:54.291Z,27.70
2019-04-07T04:44:25.673Z,29.70
2019-04-07T04:46:56.354Z,36.23
2019-04-07T04:49:26.911Z,36.10
2019-04-07T04:51:58.300Z,31.47
2019-04-07T04:54:29.192Z,34.77
2019-04-07T04:57:00.495Z,29.93
2019-04-07T04:59:31.665Z,35.43
2019-04-07T05:02:02.047Z,33.90
2019-04-07T05:04:32.808Z,32.80
2019-04-07T05:07:04.104Z,37.33
2019-04-07T05:09:44.218Z,33.73
2019-04-07T05:12:08.481Z,34.73
2019-04-07T05:14:40.079Z,37.77
2019-04-07T05:17:12.536Z,28.57
2019-04-07T05:19:44.343Z,37.63
2019-04-07T05:22:15.261Z,41.10
2019-04-07T05:24:46.660Z,41.10
2019-04-07T05:27:17.432Z,44.37
2019-04-07T05:29:48.006Z,41.23
2019-04-07T05:32:18.511Z,39.47
2019-04-07T05:34:48.973Z,36.30
2019-04-07T05:37:19.472Z,38.83
2019-04-07T05:39:50.032Z,38.73
2019-04-07T05:42:20.457Z,40.63
2019-04-07T05:44:51.686Z,40.33
2019-04-07T05:47:22.212Z,34.20
2019-04-07T05:49:57.308Z,36.57
2019-04-07T05:52:25.289Z,36.90
2019-04-07T05:54:57.847Z,38.07
2019-04-07T05:57:32.513Z,41.40
2019-04-07T06:00:01.360Z,43.37
2019-04-07T06:02:35.302Z,36.87
2019-04-07T06:05:09.772Z,36.37
2019-04-07T06:07:43.742Z,44.57
2019-04-07T06:10:15.458Z,36.17
2019-04-07T06:12:47.942Z,39.20
2019-04-07T06:15:25.856Z,42.87
2019-04-07T06:18:11.794Z,41.57
2019-04-07T06:20:45.348Z,39.37
2019-04-07T06:23:14.640Z,38.43
2019-04-07T06:25:46.308Z,39.63
2019-04-07T06:28:19.079Z,39.17
2019-04-07T06:30:50.281Z,38.33
2019-04-07T06:33:23.652Z,37.03
2019-04-07T06:35:55.429Z,37.07
2019-04-07T06:38:33.868Z,38.17
2019-04-07T06:41:00.871Z,37.07
2019-04-07T06:43:30.452Z,39.53
2019-04-07T06:46:26.164Z,39.73
2019-04-07T06:49:22.910Z,38.17
2019-04-07T06:52:04.691Z,41.07
2019-04-07T06:54:57.302Z,45.40
2019-04-07T06:57:54.054Z,35.40
2019-04-07T07:00:38.646Z,38.50
2019-04-07T07:03:38.842Z,35.13
2019-04-07T07:06:31.881Z,28.90
2019-04-07T07:09:17.222Z,36.40
2019-04-07T07:12:22.507Z,33.17
2019-04-07T07:15:19.207Z,41.33
2019-04-07T07:18:23.166Z,39.47
2019-04-07T07:21:27.526Z,39.50
2019-04-07T07:23:57.994Z,37.97
2019-04-07T07:26:28.484Z,38.20
2019-04-07T07:28:58.942Z,40.73
2019-04-07T07:31:29.353Z,33.33
2019-04-07T07:34:00.334Z,42.27
2019-04-07T07:36:30.825Z,32.23
2019-04-07T07:39:03.158Z,40.33
2019-04-07T07:41:34.503Z,35.57
2019-04-07T07:44:07.633Z,40.53
2019-04-07T07:46:37.626Z,47.83
2019-04-07T07:49:08.236Z,38.97
2019-04-07T07:51:39.819Z,36.43
2019-04-07T07:54:13.877Z,24.67
2019-04-07T07:56:48.656Z,24.10
2019-04-07T07:59:15.679Z,26.60
2019-04-07T08:01:47.113Z,18.83
2019-04-07T08:04:19.090Z,25.20
2019-04-07T08:06:50.177Z,23.10
2019-04-07T08:09:23.661Z,21.80
2019-04-07T08:11:52.866Z,27.00
2019-04-07T08:14:24.654Z,19.83
2019-04-07T08:16:55.445Z,17.53
2019-04-07T08:19:29.642Z,17.03
2019-04-07T08:22:00.582Z,16.30
2019-04-07T08:24:31.523Z,15.93
2019-04-07T08:27:06.284Z,19.53
2019-04-07T08:29:39.557Z,18.53
2019-04-07T08:32:13.281Z,19.27
2019-04-07T08:34:44.760Z,16.07
2019-04-07T08:37:16.527Z,17.83
2019-04-07T08:39:47.541Z,16.67
2019-04-07T08:42:19.661Z,14.30
2019-04-07T08:44:50.861Z,14.57
2019-04-07T08:47:22.621Z,16.17
2019-04-07T08:49:55.588Z,18.93
2019-04-07T08:52:26.025Z,16.10
2019-04-07T08:54:58.031Z,17.57
2019-04-07T08:57:30.564Z,13.63
2019-04-07T09:00:01.013Z,16.03
2019-04-07T09:02:32.219Z,17.47
2019-04-07T09:11:21.638Z,18.43
2019-04-07T09:13:55.915Z,16.27
2019-04-07T09:16:56.978Z,15.90
2019-04-07T09:25:40.314Z,14.87
2019-04-07T09:28:23.709Z,16.73
2019-04-07T09:31:04.538Z,14.50
2019-04-07T09:33:57.281Z,17.47
2019-04-07T09:36:48.449Z,12.07
2019-04-07T09:39:56.262Z,15.27
2019-04-07T09:42:34.022Z,13.83
2019-04-07T09:45:22.994Z,15.03
2019-04-07T09:48:04.019Z,15.90
2019-04-07T09:51:06.390Z,14.30
2019-04-07T09:53:40.253Z,13.67
2019-04-07T09:56:31.767Z,12.23
2019-04-07T09:59:20.666Z,16.37
2019-04-07T10:02:09.219Z,13.37
2019-04-07T10:04:57.438Z,14.07
2019-04-07T10:11:10.298Z,13.53
2019-04-07T10:14:11.630Z,18.37
2019-04-07T10:17:07.518Z,15.10
2019-04-07T10:19:53.877Z,13.07
2019-04-07T10:22:37.371Z,14.07
2019-04-07T10:25:28.999Z,12.53
2019-04-07T10:28:18.803Z,12.07
2019-04-07T10:30:59.805Z,11.77
2019-04-07T10:33:49.449Z,13.27
2019-04-07T10:36:44.018Z,14.13
2019-04-07T10:39:38.124Z,10.87
2019-04-07T10:42:28.275Z,11.90
2019-04-07T10:45:15.293Z,13.97
2019-04-07T10:48:05.789Z,12.80
2019-04-07T10:50:59.095Z,11.40
2019-04-07T10:53:58.409Z,10.37
2019-04-07T10:56:54.173Z,11.87
2019-04-07T10:59:59.114Z,11.07
2019-04-07T11:02:41.549Z,12.57
2019-04-07T11:05:30.379Z,12.03
2019-04-07T11:08:23.314Z,11.37
2019-04-07T11:11:22.245Z,12.10
2019-04-07T11:14:13.343Z,11.87
2019-04-07T11:17:01.073Z,11.37
2019-04-07T11:19:51.311Z,11.90
2019-04-07T11:22:56.283Z,14.13
2019-04-07T11:25:42.823Z,13.23
2019-04-07T11:37:45.835Z,11.53
2019-04-07T11:40:43.420Z,11.00
2019-04-07T11:43:27.018Z,11.73
2019-04-07T11:46:04.618Z,11.93
2019-04-07T11:48:57.817Z,10.97
2019-04-07T11:51:42.354Z,12.57
2019-04-07T11:54:30.633Z,11.83
2019-04-07T11:57:23.222Z,13.50
2019-04-07T12:00:04.748Z,13.37
2019-04-07T12:03:00.819Z,11.13
2019-04-07T12:05:49.559Z,12.73
2019-04-07T12:08:47.948Z,13.37
2019-04-07T12:11:37.374Z,12.40
2019-04-07T12:14:24.272Z,12.33
2019-04-07T12:17:12.417Z,10.67
2019-04-07T12:20:04.347Z,11.83
2019-04-07T12:22:44.083Z,12.70
2019-04-07T12:25:23.310Z,11.83
2019-04-07T12:30:54.739Z,13.10
2019-04-07T12:33:37.469Z,12.23
2019-04-07T12:36:28.849Z,13.67
2019-04-07T12:39:18.820Z,11.80
2019-04-07T12:42:16.837Z,12.73
2019-04-07T12:44:58.249Z,11.00
2019-04-07T12:47:47.411Z,13.33
2019-04-07T12:50:36.975Z,12.57
2019-04-07T12:53:26.322Z,14.00
2019-04-07T12:56:15.669Z,11.40
2019-04-07T12:59:18.277Z,13.60
2019-04-07T13:02:01.404Z,14.63
2019-04-07T13:05:02.033Z,16.80
2019-04-07T13:07:54.301Z,12.80
2019-04-07T13:10:49.667Z,11.17
2019-04-07T13:13:37.265Z,16.07
2019-04-07T13:16:20.327Z,13.43
2019-04-07T13:19:10.211Z,15.10
2019-04-07T13:21:49.475Z,16.63
2019-04-07T13:24:45.385Z,16.03
2019-04-07T13:27:35.179Z,15.90
2019-04-07T13:30:27.155Z,14.00
2019-04-07T13:33:28.380Z,15.83
2019-04-07T13:36:16.007Z,15.33
2019-04-07T13:39:08.135Z,16.83
2019-04-07T13:42:03.635Z,17.83
2019-04-07T13:44:48.383Z,16.87
2019-04-07T13:47:44.765Z,14.30
2019-04-07T13:50:22.445Z,13.03
2019-04-07T13:53:30.638Z,18.87
2019-04-07T13:56:22.270Z,16.63
2019-04-07T13:59:18.129Z,13.87
2019-04-07T14:01:57.039Z,16.03
2019-04-07T14:04:43.450Z,11.30
2019-04-07T14:07:34.369Z,11.93
2019-04-07T14:10:16.467Z,14.23
2019-04-07T14:13:03.549Z,13.63
2019-04-07T14:15:56.461Z,12.47
2019-04-07T14:18:52.298Z,11.40
2019-04-07T14:21:41.540Z,11.20
2019-04-07T14:24:27.979Z,11.37
2019-04-07T14:27:12.290Z,12.40
2019-04-07T14:30:02.851Z,12.97
2019-04-07T14:33:10.019Z,13.23
2019-04-07T14:35:53.210Z,11.40
2019-04-07T14:38:53.294Z,9.77
2019-04-07T14:41:34.120Z,9.73
2019-04-07T14:44:19.805Z,11.87
2019-04-07T14:47:14.025Z,8.30
2019-04-07T14:50:02.508Z,12.20
2019-04-07T14:52:45.655Z,11.37
2019-04-07T14:55:33.883Z,12.23
2019-04-07T14:58:32.483Z,10.53
2019-04-07T15:01:26.875Z,9.77
2019-04-07T15:03:57.339Z,12.27
2019-04-07T15:06:31.152Z,13.00
2019-04-07T15:09:19.875Z,10.63
2019-04-07T15:11:59.800Z,15.63
2019-04-07T15:14:33.821Z,11.67
2019-04-07T15:17:04.690Z,14.23
2019-04-07T15:19:36.180Z,11.97
2019-04-07T15:22:07.862Z,11.10
2019-04-07T15:24:41.171Z,12.60
2019-04-07T15:27:15.554Z,12.87
2019-04-07T15:29:46.986Z,11.17
2019-04-07T15:32:18.107Z,12.13
2019-04-07T15:34:49.025Z,12.00
2019-04-07T15:37:23.541Z,13.43
2019-04-07T15:39:51.735Z,11.17
2019-04-07T15:42:33.201Z,11.80
2019-04-07T15:44:55.475Z,12.67
2019-04-07T15:47:26.576Z,11.47
2019-04-07T15:49:58.092Z,10.80
2019-04-07T15:52:31.465Z,13.97
2019-04-07T15:55:02.007Z,11.17
2019-04-07T15:57:32.736Z,12.03
2019-04-07T16:00:05.245Z,11.77
2019-04-07T16:02:40.862Z,10.87
2019-04-07T16:05:13.716Z,12.97
2019-04-07T16:07:43.811Z,12.93
2019-04-07T16:10:15.188Z,20.57
2019-04-07T16:12:50.005Z,19.63
2019-04-07T16:15:18.266Z,20.23
2019-04-07T16:17:51.085Z,14.87
2019-04-07T16:20:25.096Z,16.63
2019-04-07T16:22:55.575Z,11.67
2019-04-07T16:25:27.876Z,14.93
2019-04-07T16:27:59.102Z,13.03
2019-04-07T16:30:30.428Z,13.23
2019-04-07T16:33:03.816Z,13.90
2019-04-07T16:35:33.198Z,14.53
2019-04-07T16:38:03.860Z,11.30
2019-04-07T16:40:35.019Z,14.97
2019-04-07T16:43:13.331Z,14.23
2019-04-07T16:45:38.813Z,12.73
2019-04-07T16:48:09.479Z,13.03
2019-04-07T16:50:41.823Z,11.13
2019-04-07T16:53:12.363Z,12.73
2019-04-07T16:55:47.457Z,12.47
2019-04-07T16:58:16.204Z,15.90
2019-04-07T17:00:49.807Z,12.47
2019-04-07T17:03:21.771Z,13.63
2019-04-07T17:05:55.672Z,13.37
2019-04-07T17:08:24.978Z,16.30
2019-04-07T17:10:56.351Z,14.03
2019-04-07T17:13:34.672Z,16.17
2019-04-07T17:16:00.215Z,16.13
2019-04-07T17:18:42.918Z,11.90
2019-04-07T17:21:16.426Z,15.97
2019-04-07T17:23:47.645Z,14.57
2019-04-07T17:26:20.384Z,16.63
2019-04-07T17:28:51.132Z,12.73
2019-04-07T17:31:21.794Z,15.37
2019-04-07T17:33:54.016Z,13.50
2019-04-07T17:36:25.104Z,18.87
2019-04-07T17:39:22.709Z,12.53
2019-04-07T17:41:55.132Z,13.67
2019-04-07T17:44:52.587Z,13.67
2019-04-07T17:47:35.766Z,17.93
2019-04-07T17:50:23.496Z,13.33
2019-04-07T17:53:16.260Z,15.17
2019-04-07T17:56:02.920Z,15.17
2019-04-07T17:59:11.253Z,15.67
2019-04-07T18:02:10.700Z,12.80
2019-04-07T18:05:02.040Z,14.03
2019-04-07T18:07:50.415Z,16.63
2019-04-07T18:11:02.471Z,13.53
2019-04-07T18:13:51.586Z,14.33
2019-04-07T18:16:40.790Z,15.63
2019-04-07T18:19:31.507Z,12.90
2019-04-07T18:22:21.432Z,13.47
2019-04-07T18:24:59.616Z,14.97
2019-04-07T18:27:48.406Z,16.73
2019-04-07T18:30:32.092Z,15.07
2019-04-07T18:33:17.591Z,16.93
2019-04-07T18:35:56.101Z,13.47
2019-04-07T18:38:47.084Z,15.87
2019-04-07T18:41:34.036Z,15.53
2019-04-07T18:44:26.466Z,12.93
2019-04-07T18:47:16.651Z,14.10
2019-04-07T18:50:18.690Z,13.50
2019-04-07T18:53:04.515Z,17.30
2019-04-07T18:56:09.214Z,17.07
2019-04-07T18:58:55.924Z,17.47
2019-04-07T19:01:45.405Z,19.10
2019-04-07T19:04:30.412Z,15.93
2019-04-07T19:07:18.530Z,13.33
2019-04-07T19:10:21.365Z,15.27
2019-04-07T19:13:17.902Z,15.30
2019-04-07T19:16:06.268Z,14.40
2019-04-07T19:19:07.628Z,17.13
2019-04-07T19:21:47.143Z,23.20
2019-04-07T19:24:46.305Z,17.90
2019-04-07T19:27:35.809Z,15.17
2019-04-07T19:30:29.332Z,16.80
2019-04-07T19:33:24.492Z,15.07
2019-04-07T19:36:13.300Z,20.40
2019-04-07T19:38:52.251Z,18.03
2019-04-07T19:41:44.720Z,14.60
2019-04-07T19:44:40.130Z,18.60
2019-04-07T19:47:38.381Z,14.53
2019-04-07T19:50:40.764Z,19.00
2019-04-07T19:53:32.786Z,18.90
2019-04-07T19:56:23.108Z,17.17
2019-04-07T19:59:22.170Z,18.97
2019-04-07T20:02:10.471Z,22.33
2019-04-07T20:05:02.854Z,18.60
2019-04-07T20:07:46.198Z,17.90
2019-04-07T20:10:33.840Z,20.73
2019-04-07T20:13:17.891Z,18.77
2019-04-07T20:16:08.189Z,21.77
2019-04-07T20:18:51.598Z,19.37
2019-04-07T20:21:42.765Z,17.67
2019-04-07T20:24:34.610Z,22.17
2019-04-07T20:27:25.521Z,17.77
2019-04-07T20:30:23.366Z,18.23
2019-04-07T20:33:14.135Z,14.17
2019-04-07T20:36:01.138Z,21.57
2019-04-07T20:38:51.172Z,15.13
2019-04-07T20:41:43.077Z,16.10
2019-04-07T20:44:38.211Z,19.47
2019-04-07T20:47:30.497Z,15.90
2019-04-07T20:50:19.483Z,17.77
2019-04-07T20:53:15.400Z,18.77
2019-04-07T20:56:09.333Z,17.57
2019-04-07T20:59:08.463Z,15.00
2019-04-07T21:02:03.302Z,19.73
2019-04-07T21:04:49.902Z,20.70
2019-04-07T21:07:29.917Z,20.93
2019-04-07T21:10:09.539Z,16.07
2019-04-07T21:12:55.772Z,20.67
2019-04-07T21:15:57.558Z,20.83
2019-04-07T21:18:45.821Z,16.17
2019-04-07T21:21:50.187Z,17.10
2019-04-07T21:24:55.115Z,16.27
2019-04-07T21:27:40.824Z,17.00
2019-04-07T21:30:33.586Z,15.70
2019-04-07T21:33:09.505Z,18.90
2019-04-07T21:35:51.005Z,16.70
2019-04-07T21:38:43.347Z,20.57
2019-04-07T21:41:31.535Z,18.07
2019-04-07T21:44:20.016Z,17.20
2019-04-07T21:47:16.148Z,23.93
2019-04-07T21:49:57.821Z,16.60
2019-04-07T21:52:56.985Z,12.70
2019-04-07T21:55:49.770Z,13.77
2019-04-07T21:58:37.992Z,12.33
2019-04-07T22:01:19.162Z,12.53
2019-04-07T22:04:01.689Z,11.53
2019-04-07T22:06:50.772Z,10.63
2019-04-07T22:09:28.705Z,13.53
2019-04-07T22:11:59.995Z,13.23
2019-04-07T22:14:30.636Z,13.67
2019-04-07T22:17:02.829Z,13.33
2019-04-07T22:19:33.943Z,10.13
2019-04-07T22:22:04.651Z,10.60
2019-04-07T22:24:35.999Z,13.07
2019-04-07T22:27:07.263Z,11.97
2019-04-07T22:29:37.654Z,11.53
2019-04-07T22:32:08.102Z,11.67
2019-04-07T22:34:38.446Z,12.20
2019-04-07T22:37:08.942Z,15.20
2019-04-07T22:39:39.694Z,12.17
2019-04-07T22:42:12.791Z,12.67
2019-04-07T22:44:45.330Z,13.60
2019-04-07T22:47:16.834Z,12.37
2019-04-07T22:49:48.565Z,10.17
2019-04-07T22:52:19.003Z,10.37
2019-04-07T22:57:19.704Z,13.17
2019-04-07T22:59:50.425Z,11.53
2019-04-07T23:02:20.907Z,11.20
2019-04-07T23:04:51.330Z,12.73
2019-04-07T23:07:22.016Z,12.13
2019-04-07T23:09:52.612Z,12.60
2019-04-07T23:12:23.091Z,10.73
2019-04-07T23:14:53.531Z,12.77
2019-04-07T23:17:23.992Z,11.23
2019-04-07T23:19:54.610Z,10.83
2019-04-07T23:22:25.635Z,10.83
2019-04-07T23:24:56.320Z,15.27
2019-04-07T23:27:27.588Z,11.10
2019-04-07T23:29:58.999Z,10.93
2019-04-07T23:32:31.147Z,10.63
2019-04-07T23:35:00.916Z,9.97
2019-04-07T23:37:31.455Z,10.40
2019-04-07T23:40:02.474Z,12.53
2019-04-07T23:42:33.008Z,13.00
2019-04-07T23:45:03.411Z,8.77
2019-04-07T23:47:33.947Z,13.97
2019-04-07T23:50:04.900Z,12.90
2019-04-07T23:52:35.632Z,13.10
2019-04-07T23:55:06.808Z,11.47
2019-04-07T23:57:38.093Z,11.60
